sensor_id;sensor_type;location;lat;lon;timestamp;P1;durP1;ratioP1;P2;durP2;ratioP2
54139;SDS011;40046;53.254;5.900;2024-02-26T00:00:38;13.13;;;8.23;;
54139;SDS011;40046;53.254;5.900;2024-02-26T00:03:04;11.77;;;7.50;;
54139;SDS011;40046;53.254;5.900;2024-02-26T00:05:30;15.98;;;7.85;;
54139;SDS011;40046;53.254;5.900;2024-02-26T00:07:56;11.25;;;7.57;;
54139;SDS011;40046;53.254;5.900;2024-02-26T00:10:23;12.00;;;7.78;;
54139;SDS011;40046;53.254;5.900;2024-02-26T00:12:49;10.90;;;7.80;;
54139;SDS011;40046;53.254;5.900;2024-02-26T00:15:15;11.27;;;7.80;;
54139;SDS011;40046;53.254;5.900;2024-02-26T00:17:41;9.23;;;7.18;;
54139;SDS011;40046;53.254;5.900;2024-02-26T00:20:08;9.32;;;6.85;;
54139;SDS011;40046;53.254;5.900;2024-02-26T00:22:36;10.15;;;6.38;;
54139;SDS011;40046;53.254;5.900;2024-02-26T00:25:02;10.25;;;7.45;;
54139;SDS011;40046;53.254;5.900;2024-02-26T00:27:28;9.00;;;6.95;;
54139;SDS011;40046;53.254;5.900;2024-02-26T00:29:54;9.20;;;6.47;;
54139;SDS011;40046;53.254;5.900;2024-02-26T00:32:20;9.15;;;6.72;;
54139;SDS011;40046;53.254;5.900;2024-02-26T00:34:47;9.82;;;7.03;;
54139;SDS011;40046;53.254;5.900;2024-02-26T00:37:13;10.85;;;6.35;;
54139;SDS011;40046;53.254;5.900;2024-02-26T00:39:39;10.05;;;6.45;;
54139;SDS011;40046;53.254;5.900;2024-02-26T00:42:05;8.98;;;5.85;;
54139;SDS011;40046;53.254;5.900;2024-02-26T00:44:31;9.27;;;6.57;;
54139;SDS011;40046;53.254;5.900;2024-02-26T00:46:57;7.97;;;5.05;;
54139;SDS011;40046;53.254;5.900;2024-02-26T00:49:23;10.18;;;6.57;;
54139;SDS011;40046;53.254;5.900;2024-02-26T00:51:50;10.07;;;5.88;;
54139;SDS011;40046;53.254;5.900;2024-02-26T00:54:16;9.63;;;5.70;;
54139;SDS011;40046;53.254;5.900;2024-02-26T00:56:42;8.50;;;7.13;;
54139;SDS011;40046;53.254;5.900;2024-02-26T00:59:08;9.95;;;5.72;;
54139;SDS011;40046;53.254;5.900;2024-02-26T01:01:34;8.65;;;4.63;;
54139;SDS011;40046;53.254;5.900;2024-02-26T01:04:00;7.28;;;4.88;;
54139;SDS011;40046;53.254;5.900;2024-02-26T01:06:28;17.45;;;5.70;;
54139;SDS011;40046;53.254;5.900;2024-02-26T01:08:54;11.43;;;4.65;;
54139;SDS011;40046;53.254;5.900;2024-02-26T01:11:20;9.25;;;4.50;;
54139;SDS011;40046;53.254;5.900;2024-02-26T01:13:46;6.65;;;4.25;;
54139;SDS011;40046;53.254;5.900;2024-02-26T01:16:13;6.70;;;4.40;;
54139;SDS011;40046;53.254;5.900;2024-02-26T01:18:39;6.10;;;4.43;;
54139;SDS011;40046;53.254;5.900;2024-02-26T01:21:05;6.28;;;4.15;;
54139;SDS011;40046;53.254;5.900;2024-02-26T01:23:34;9.68;;;6.05;;
54139;SDS011;40046;53.254;5.900;2024-02-26T01:26:00;7.43;;;4.50;;
54139;SDS011;40046;53.254;5.900;2024-02-26T01:28:27;8.52;;;4.88;;
54139;SDS011;40046;53.254;5.900;2024-02-26T01:30:54;7.45;;;5.32;;
54139;SDS011;40046;53.254;5.900;2024-02-26T01:33:20;10.40;;;5.25;;
54139;SDS011;40046;53.254;5.900;2024-02-26T01:35:46;5.80;;;4.57;;
54139;SDS011;40046;53.254;5.900;2024-02-26T01:38:12;6.47;;;4.32;;
54139;SDS011;40046;53.254;5.900;2024-02-26T01:40:38;7.90;;;4.57;;
54139;SDS011;40046;53.254;5.900;2024-02-26T01:43:04;5.32;;;3.90;;
54139;SDS011;40046;53.254;5.900;2024-02-26T01:45:30;5.97;;;3.47;;
54139;SDS011;40046;53.254;5.900;2024-02-26T01:47:57;6.25;;;3.45;;
54139;SDS011;40046;53.254;5.900;2024-02-26T01:50:23;5.78;;;3.38;;
54139;SDS011;40046;53.254;5.900;2024-02-26T01:52:50;6.38;;;3.53;;
54139;SDS011;40046;53.254;5.900;2024-02-26T01:55:17;5.60;;;3.60;;
54139;SDS011;40046;53.254;5.900;2024-02-26T01:57:44;5.97;;;3.67;;
54139;SDS011;40046;53.254;5.900;2024-02-26T02:00:12;6.40;;;4.18;;
54139;SDS011;40046;53.254;5.900;2024-02-26T02:02:38;7.50;;;3.80;;
54139;SDS011;40046;53.254;5.900;2024-02-26T02:05:07;5.60;;;3.15;;
54139;SDS011;40046;53.254;5.900;2024-02-26T02:07:34;4.20;;;2.88;;
54139;SDS011;40046;53.254;5.900;2024-02-26T02:10:00;5.63;;;3.15;;
54139;SDS011;40046;53.254;5.900;2024-02-26T02:12:26;7.05;;;2.78;;
54139;SDS011;40046;53.254;5.900;2024-02-26T02:14:53;7.15;;;3.10;;
54139;SDS011;40046;53.254;5.900;2024-02-26T02:17:19;8.30;;;3.00;;
54139;SDS011;40046;53.254;5.900;2024-02-26T02:19:45;5.55;;;2.33;;
54139;SDS011;40046;53.254;5.900;2024-02-26T02:22:11;7.45;;;2.70;;
54139;SDS011;40046;53.254;5.900;2024-02-26T02:24:38;7.15;;;2.72;;
54139;SDS011;40046;53.254;5.900;2024-02-26T02:27:04;5.03;;;2.15;;
54139;SDS011;40046;53.254;5.900;2024-02-26T02:29:30;5.85;;;2.42;;
54139;SDS011;40046;53.254;5.900;2024-02-26T02:31:56;6.50;;;2.22;;
54139;SDS011;40046;53.254;5.900;2024-02-26T02:34:23;6.13;;;2.67;;
54139;SDS011;40046;53.254;5.900;2024-02-26T02:36:52;4.72;;;2.42;;
54139;SDS011;40046;53.254;5.900;2024-02-26T02:39:19;5.38;;;2.38;;
54139;SDS011;40046;53.254;5.900;2024-02-26T02:41:45;7.03;;;2.55;;
54139;SDS011;40046;53.254;5.900;2024-02-26T02:44:11;8.05;;;3.70;;
54139;SDS011;40046;53.254;5.900;2024-02-26T02:46:38;4.15;;;2.50;;
54139;SDS011;40046;53.254;5.900;2024-02-26T02:49:07;6.18;;;2.60;;
54139;SDS011;40046;53.254;5.900;2024-02-26T02:51:34;5.80;;;2.88;;
54139;SDS011;40046;53.254;5.900;2024-02-26T02:54:00;7.57;;;3.13;;
54139;SDS011;40046;53.254;5.900;2024-02-26T02:56:26;6.68;;;3.20;;
54139;SDS011;40046;53.254;5.900;2024-02-26T02:58:52;7.50;;;3.17;;
54139;SDS011;40046;53.254;5.900;2024-02-26T03:01:19;5.47;;;3.20;;
54139;SDS011;40046;53.254;5.900;2024-02-26T03:03:45;5.35;;;2.95;;
54139;SDS011;40046;53.254;5.900;2024-02-26T03:06:11;10.00;;;3.55;;
54139;SDS011;40046;53.254;5.900;2024-02-26T03:08:37;8.32;;;3.53;;
54139;SDS011;40046;53.254;5.900;2024-02-26T03:11:05;7.78;;;3.70;;
54139;SDS011;40046;53.254;5.900;2024-02-26T03:13:31;5.60;;;3.35;;
54139;SDS011;40046;53.254;5.900;2024-02-26T03:15:57;9.98;;;3.83;;
54139;SDS011;40046;53.254;5.900;2024-02-26T03:18:23;7.70;;;3.20;;
54139;SDS011;40046;53.254;5.900;2024-02-26T03:20:49;7.05;;;3.72;;
54139;SDS011;40046;53.254;5.900;2024-02-26T03:23:15;5.07;;;3.08;;
54139;SDS011;40046;53.254;5.900;2024-02-26T03:25:42;4.38;;;3.05;;
54139;SDS011;40046;53.254;5.900;2024-02-26T03:28:08;12.10;;;5.05;;
54139;SDS011;40046;53.254;5.900;2024-02-26T03:30:35;12.88;;;2.90;;
54139;SDS011;40046;53.254;5.900;2024-02-26T03:33:01;3.70;;;2.70;;
54139;SDS011;40046;53.254;5.900;2024-02-26T03:35:27;5.43;;;3.10;;
54139;SDS011;40046;53.254;5.900;2024-02-26T03:37:53;5.35;;;3.22;;
54139;SDS011;40046;53.254;5.900;2024-02-26T03:40:20;4.30;;;2.83;;
54139;SDS011;40046;53.254;5.900;2024-02-26T03:42:46;7.32;;;3.28;;
54139;SDS011;40046;53.254;5.900;2024-02-26T03:45:12;7.47;;;2.85;;
54139;SDS011;40046;53.254;5.900;2024-02-26T03:47:38;9.00;;;3.58;;
54139;SDS011;40046;53.254;5.900;2024-02-26T03:50:07;8.38;;;3.17;;
54139;SDS011;40046;53.254;5.900;2024-02-26T03:52:33;4.93;;;3.10;;
54139;SDS011;40046;53.254;5.900;2024-02-26T03:55:00;8.32;;;3.70;;
54139;SDS011;40046;53.254;5.900;2024-02-26T03:57:26;5.38;;;3.63;;
54139;SDS011;40046;53.254;5.900;2024-02-26T03:59:52;7.72;;;3.63;;
54139;SDS011;40046;53.254;5.900;2024-02-26T04:02:18;6.57;;;4.22;;
54139;SDS011;40046;53.254;5.900;2024-02-26T04:04:45;7.95;;;4.22;;
54139;SDS011;40046;53.254;5.900;2024-02-26T04:07:11;7.97;;;3.92;;
54139;SDS011;40046;53.254;5.900;2024-02-26T04:09:38;7.57;;;4.80;;
54139;SDS011;40046;53.254;5.900;2024-02-26T04:12:04;8.38;;;4.63;;
54139;SDS011;40046;53.254;5.900;2024-02-26T04:14:31;7.68;;;4.85;;
54139;SDS011;40046;53.254;5.900;2024-02-26T04:16:57;7.25;;;4.45;;
54139;SDS011;40046;53.254;5.900;2024-02-26T04:19:23;8.52;;;5.43;;
54139;SDS011;40046;53.254;5.900;2024-02-26T04:21:49;9.30;;;4.80;;
54139;SDS011;40046;53.254;5.900;2024-02-26T04:24:15;6.25;;;4.25;;
54139;SDS011;40046;53.254;5.900;2024-02-26T04:26:41;7.80;;;4.57;;
54139;SDS011;40046;53.254;5.900;2024-02-26T04:29:07;5.80;;;4.28;;
54139;SDS011;40046;53.254;5.900;2024-02-26T04:31:34;7.38;;;5.10;;
54139;SDS011;40046;53.254;5.900;2024-02-26T04:34:00;8.10;;;5.05;;
54139;SDS011;40046;53.254;5.900;2024-02-26T04:36:26;6.45;;;4.95;;
54139;SDS011;40046;53.254;5.900;2024-02-26T04:38:52;7.57;;;5.32;;
54139;SDS011;40046;53.254;5.900;2024-02-26T04:41:21;8.07;;;5.90;;
54139;SDS011;40046;53.254;5.900;2024-02-26T04:43:47;5.68;;;4.45;;
54139;SDS011;40046;53.254;5.900;2024-02-26T04:46:13;7.60;;;4.32;;
54139;SDS011;40046;53.254;5.900;2024-02-26T04:48:39;7.10;;;4.85;;
54139;SDS011;40046;53.254;5.900;2024-02-26T04:51:07;10.20;;;4.53;;
54139;SDS011;40046;53.254;5.900;2024-02-26T04:53:33;6.45;;;4.40;;
54139;SDS011;40046;53.254;5.900;2024-02-26T04:55:59;7.35;;;4.63;;
54139;SDS011;40046;53.254;5.900;2024-02-26T04:58:25;7.68;;;4.80;;
54139;SDS011;40046;53.254;5.900;2024-02-26T05:00:51;6.32;;;4.25;;
54139;SDS011;40046;53.254;5.900;2024-02-26T05:03:18;8.00;;;3.95;;
54139;SDS011;40046;53.254;5.900;2024-02-26T05:05:44;6.22;;;3.85;;
54139;SDS011;40046;53.254;5.900;2024-02-26T05:08:10;4.97;;;3.30;;
54139;SDS011;40046;53.254;5.900;2024-02-26T05:10:37;6.45;;;3.08;;
54139;SDS011;40046;53.254;5.900;2024-02-26T05:13:07;4.75;;;2.92;;
54139;SDS011;40046;53.254;5.900;2024-02-26T05:15:34;6.35;;;2.78;;
54139;SDS011;40046;53.254;5.900;2024-02-26T05:18:00;6.93;;;2.83;;
54139;SDS011;40046;53.254;5.900;2024-02-26T05:20:26;7.30;;;3.13;;
54139;SDS011;40046;53.254;5.900;2024-02-26T05:22:53;6.78;;;2.50;;
54139;SDS011;40046;53.254;5.900;2024-02-26T05:25:19;6.93;;;2.47;;
54139;SDS011;40046;53.254;5.900;2024-02-26T05:27:45;3.33;;;1.98;;
54139;SDS011;40046;53.254;5.900;2024-02-26T05:30:11;3.75;;;1.80;;
54139;SDS011;40046;53.254;5.900;2024-02-26T05:32:38;4.55;;;1.60;;
54139;SDS011;40046;53.254;5.900;2024-02-26T05:35:04;7.82;;;2.10;;
54139;SDS011;40046;53.254;5.900;2024-02-26T05:37:30;5.93;;;2.13;;
54139;SDS011;40046;53.254;5.900;2024-02-26T05:39:56;3.90;;;2.03;;
54139;SDS011;40046;53.254;5.900;2024-02-26T05:42:23;6.18;;;2.00;;
54139;SDS011;40046;53.254;5.900;2024-02-26T05:44:49;3.83;;;1.60;;
54139;SDS011;40046;53.254;5.900;2024-02-26T05:47:15;6.80;;;2.13;;
54139;SDS011;40046;53.254;5.900;2024-02-26T05:49:42;5.20;;;1.80;;
54139;SDS011;40046;53.254;5.900;2024-02-26T05:52:08;5.38;;;1.50;;
54139;SDS011;40046;53.254;5.900;2024-02-26T05:54:34;4.75;;;1.23;;
54139;SDS011;40046;53.254;5.900;2024-02-26T05:57:01;2.67;;;1.55;;
54139;SDS011;40046;53.254;5.900;2024-02-26T05:59:27;2.78;;;1.50;;
54139;SDS011;40046;53.254;5.900;2024-02-26T06:01:53;7.18;;;1.25;;
54139;SDS011;40046;53.254;5.900;2024-02-26T06:04:19;3.67;;;1.15;;
54139;SDS011;40046;53.254;5.900;2024-02-26T06:06:45;3.97;;;1.83;;
54139;SDS011;40046;53.254;5.900;2024-02-26T06:09:12;6.50;;;2.65;;
54139;SDS011;40046;53.254;5.900;2024-02-26T06:11:38;4.53;;;2.03;;
54139;SDS011;40046;53.254;5.900;2024-02-26T06:14:04;4.88;;;1.58;;
54139;SDS011;40046;53.254;5.900;2024-02-26T06:16:30;4.82;;;1.42;;
54139;SDS011;40046;53.254;5.900;2024-02-26T06:18:57;4.22;;;1.60;;
54139;SDS011;40046;53.254;5.900;2024-02-26T06:21:23;5.70;;;1.92;;
54139;SDS011;40046;53.254;5.900;2024-02-26T06:23:49;3.15;;;1.27;;
54139;SDS011;40046;53.254;5.900;2024-02-26T06:26:15;7.07;;;3.65;;
54139;SDS011;40046;53.254;5.900;2024-02-26T06:28:42;3.72;;;1.05;;
54139;SDS011;40046;53.254;5.900;2024-02-26T06:31:08;2.92;;;1.20;;
54139;SDS011;40046;53.254;5.900;2024-02-26T06:33:34;5.20;;;1.10;;
54139;SDS011;40046;53.254;5.900;2024-02-26T06:36:00;2.92;;;0.70;;
54139;SDS011;40046;53.254;5.900;2024-02-26T06:38:26;3.08;;;1.00;;
54139;SDS011;40046;53.254;5.900;2024-02-26T06:40:53;3.58;;;1.10;;
54139;SDS011;40046;53.254;5.900;2024-02-26T06:43:19;4.80;;;0.95;;
54139;SDS011;40046;53.254;5.900;2024-02-26T06:45:45;4.45;;;0.85;;
54139;SDS011;40046;53.254;5.900;2024-02-26T06:48:11;4.78;;;0.90;;
54139;SDS011;40046;53.254;5.900;2024-02-26T06:50:38;3.03;;;1.10;;
54139;SDS011;40046;53.254;5.900;2024-02-26T06:53:04;4.38;;;1.13;;
54139;SDS011;40046;53.254;5.900;2024-02-26T06:55:32;5.65;;;1.20;;
54139;SDS011;40046;53.254;5.900;2024-02-26T06:57:58;4.07;;;1.88;;
54139;SDS011;40046;53.254;5.900;2024-02-26T07:00:24;6.50;;;1.50;;
54139;SDS011;40046;53.254;5.900;2024-02-26T07:02:50;5.68;;;1.75;;
54139;SDS011;40046;53.254;5.900;2024-02-26T07:05:17;3.55;;;1.42;;
54139;SDS011;40046;53.254;5.900;2024-02-26T07:07:43;6.25;;;1.90;;
54139;SDS011;40046;53.254;5.900;2024-02-26T07:10:09;4.07;;;1.38;;
54139;SDS011;40046;53.254;5.900;2024-02-26T07:12:37;5.63;;;1.30;;
54139;SDS011;40046;53.254;5.900;2024-02-26T07:15:04;4.43;;;1.40;;
54139;SDS011;40046;53.254;5.900;2024-02-26T07:17:33;3.80;;;1.48;;
54139;SDS011;40046;53.254;5.900;2024-02-26T07:19:59;3.17;;;1.30;;
54139;SDS011;40046;53.254;5.900;2024-02-26T07:22:25;4.03;;;1.65;;
54139;SDS011;40046;53.254;5.900;2024-02-26T07:24:51;8.80;;;1.85;;
54139;SDS011;40046;53.254;5.900;2024-02-26T07:27:18;5.05;;;1.98;;
54139;SDS011;40046;53.254;5.900;2024-02-26T07:29:46;4.05;;;1.00;;
54139;SDS011;40046;53.254;5.900;2024-02-26T07:32:12;5.70;;;1.48;;
54139;SDS011;40046;53.254;5.900;2024-02-26T07:34:38;4.18;;;1.30;;
54139;SDS011;40046;53.254;5.900;2024-02-26T07:37:10;5.20;;;1.40;;
54139;SDS011;40046;53.254;5.900;2024-02-26T07:39:36;7.32;;;1.88;;
54139;SDS011;40046;53.254;5.900;2024-02-26T07:42:02;8.68;;;1.90;;
54139;SDS011;40046;53.254;5.900;2024-02-26T07:44:29;4.05;;;1.50;;
54139;SDS011;40046;53.254;5.900;2024-02-26T07:46:55;5.78;;;1.63;;
54139;SDS011;40046;53.254;5.900;2024-02-26T07:49:21;6.97;;;2.10;;
54139;SDS011;40046;53.254;5.900;2024-02-26T07:51:47;7.88;;;3.25;;
54139;SDS011;40046;53.254;5.900;2024-02-26T07:54:14;6.40;;;2.15;;
54139;SDS011;40046;53.254;5.900;2024-02-26T07:56:41;4.15;;;2.20;;
54139;SDS011;40046;53.254;5.900;2024-02-26T07:59:07;8.00;;;2.83;;
54139;SDS011;40046;53.254;5.900;2024-02-26T08:01:34;4.60;;;2.17;;
54139;SDS011;40046;53.254;5.900;2024-02-26T08:04:03;7.10;;;2.53;;
54139;SDS011;40046;53.254;5.900;2024-02-26T08:06:30;6.78;;;2.50;;
54139;SDS011;40046;53.254;5.900;2024-02-26T08:08:56;8.52;;;2.67;;
54139;SDS011;40046;53.254;5.900;2024-02-26T08:11:22;7.40;;;2.72;;
54139;SDS011;40046;53.254;5.900;2024-02-26T08:13:48;5.72;;;2.65;;
54139;SDS011;40046;53.254;5.900;2024-02-26T08:16:14;9.23;;;4.25;;
54139;SDS011;40046;53.254;5.900;2024-02-26T08:18:40;8.50;;;2.67;;
54139;SDS011;40046;53.254;5.900;2024-02-26T08:21:07;5.43;;;3.05;;
54139;SDS011;40046;53.254;5.900;2024-02-26T08:23:33;7.05;;;2.65;;
54139;SDS011;40046;53.254;5.900;2024-02-26T08:26:00;5.82;;;2.22;;
54139;SDS011;40046;53.254;5.900;2024-02-26T08:28:26;8.75;;;3.20;;
54139;SDS011;40046;53.254;5.900;2024-02-26T08:30:52;4.95;;;2.33;;
54139;SDS011;40046;53.254;5.900;2024-02-26T08:33:18;6.88;;;2.00;;
54139;SDS011;40046;53.254;5.900;2024-02-26T08:35:44;5.50;;;2.10;;
54139;SDS011;40046;53.254;5.900;2024-02-26T08:38:10;3.50;;;1.73;;
54139;SDS011;40046;53.254;5.900;2024-02-26T08:40:37;4.97;;;2.00;;
54139;SDS011;40046;53.254;5.900;2024-02-26T08:43:03;6.32;;;2.35;;
54139;SDS011;40046;53.254;5.900;2024-02-26T08:45:29;5.65;;;1.85;;
54139;SDS011;40046;53.254;5.900;2024-02-26T08:47:55;4.45;;;1.77;;
54139;SDS011;40046;53.254;5.900;2024-02-26T08:50:21;4.50;;;1.98;;
54139;SDS011;40046;53.254;5.900;2024-02-26T08:52:47;3.83;;;1.98;;
54139;SDS011;40046;53.254;5.900;2024-02-26T08:55:16;4.43;;;1.50;;
54139;SDS011;40046;53.254;5.900;2024-02-26T08:57:42;6.57;;;1.90;;
54139;SDS011;40046;53.254;5.900;2024-02-26T09:00:09;6.53;;;1.90;;
54139;SDS011;40046;53.254;5.900;2024-02-26T09:02:35;6.45;;;1.92;;
54139;SDS011;40046;53.254;5.900;2024-02-26T09:05:04;5.75;;;1.88;;
54139;SDS011;40046;53.254;5.900;2024-02-26T09:07:30;4.97;;;1.80;;
54139;SDS011;40046;53.254;5.900;2024-02-26T09:09:57;7.18;;;2.33;;
54139;SDS011;40046;53.254;5.900;2024-02-26T09:12:23;4.07;;;1.90;;
54139;SDS011;40046;53.254;5.900;2024-02-26T09:14:49;12.50;;;5.10;;
54139;SDS011;40046;53.254;5.900;2024-02-26T09:17:15;3.85;;;1.25;;
54139;SDS011;40046;53.254;5.900;2024-02-26T09:19:41;3.50;;;1.70;;
54139;SDS011;40046;53.254;5.900;2024-02-26T09:22:09;7.72;;;3.15;;
54139;SDS011;40046;53.254;5.900;2024-02-26T09:24:35;4.00;;;1.48;;
54139;SDS011;40046;53.254;5.900;2024-02-26T09:27:02;7.15;;;1.58;;
54139;SDS011;40046;53.254;5.900;2024-02-26T09:29:28;5.72;;;1.60;;
54139;SDS011;40046;53.254;5.900;2024-02-26T09:31:54;3.45;;;1.50;;
54139;SDS011;40046;53.254;5.900;2024-02-26T09:34:20;7.72;;;1.85;;
54139;SDS011;40046;53.254;5.900;2024-02-26T09:36:46;3.70;;;1.52;;
54139;SDS011;40046;53.254;5.900;2024-02-26T09:39:12;6.97;;;1.63;;
54139;SDS011;40046;53.254;5.900;2024-02-26T09:41:39;4.07;;;1.27;;
54139;SDS011;40046;53.254;5.900;2024-02-26T09:44:06;3.90;;;1.02;;
54139;SDS011;40046;53.254;5.900;2024-02-26T09:46:33;7.50;;;1.17;;
54139;SDS011;40046;53.254;5.900;2024-02-26T09:48:59;7.55;;;1.65;;
54139;SDS011;40046;53.254;5.900;2024-02-26T09:51:26;6.28;;;1.77;;
54139;SDS011;40046;53.254;5.900;2024-02-26T09:53:52;5.50;;;2.20;;
54139;SDS011;40046;53.254;5.900;2024-02-26T09:56:18;6.40;;;1.38;;
54139;SDS011;40046;53.254;5.900;2024-02-26T09:58:45;4.10;;;1.20;;
54139;SDS011;40046;53.254;5.900;2024-02-26T10:01:16;2.60;;;0.82;;
54139;SDS011;40046;53.254;5.900;2024-02-26T10:03:42;4.38;;;1.27;;
54139;SDS011;40046;53.254;5.900;2024-02-26T10:06:12;3.47;;;1.50;;
54139;SDS011;40046;53.254;5.900;2024-02-26T10:08:39;7.35;;;1.40;;
54139;SDS011;40046;53.254;5.900;2024-02-26T10:11:07;4.95;;;1.23;;
54139;SDS011;40046;53.254;5.900;2024-02-26T10:13:34;6.07;;;1.73;;
54139;SDS011;40046;53.254;5.900;2024-02-26T10:16:01;4.38;;;1.35;;
54139;SDS011;40046;53.254;5.900;2024-02-26T10:21:14;10.32;;;2.78;;
54139;SDS011;40046;53.254;5.900;2024-02-26T10:23:43;4.18;;;1.48;;
54139;SDS011;40046;53.254;5.900;2024-02-26T10:26:10;4.13;;;1.60;;
54139;SDS011;40046;53.254;5.900;2024-02-26T10:28:37;5.38;;;1.80;;
54139;SDS011;40046;53.254;5.900;2024-02-26T10:31:03;7.72;;;2.10;;
54139;SDS011;40046;53.254;5.900;2024-02-26T10:33:29;6.70;;;1.92;;
54139;SDS011;40046;53.254;5.900;2024-02-26T10:35:57;5.25;;;1.88;;
54139;SDS011;40046;53.254;5.900;2024-02-26T10:38:23;7.80;;;2.50;;
54139;SDS011;40046;53.254;5.900;2024-02-26T10:40:49;7.70;;;1.98;;
54139;SDS011;40046;53.254;5.900;2024-02-26T10:43:15;8.20;;;2.72;;
54139;SDS011;40046;53.254;5.900;2024-02-26T10:45:43;4.68;;;2.50;;
54139;SDS011;40046;53.254;5.900;2024-02-26T10:48:10;5.25;;;2.10;;
54139;SDS011;40046;53.254;5.900;2024-02-26T10:50:37;6.03;;;2.10;;
54139;SDS011;40046;53.254;5.900;2024-02-26T10:53:05;11.57;;;2.70;;
54139;SDS011;40046;53.254;5.900;2024-02-26T10:55:32;8.25;;;3.03;;
54139;SDS011;40046;53.254;5.900;2024-02-26T10:58:00;8.63;;;2.95;;
54139;SDS011;40046;53.254;5.900;2024-02-26T11:00:28;7.03;;;2.33;;
54139;SDS011;40046;53.254;5.900;2024-02-26T11:02:54;5.95;;;2.40;;
54139;SDS011;40046;53.254;5.900;2024-02-26T11:05:23;6.75;;;2.80;;
54139;SDS011;40046;53.254;5.900;2024-02-26T11:07:50;7.35;;;2.70;;
54139;SDS011;40046;53.254;5.900;2024-02-26T11:10:16;5.82;;;2.22;;
54139;SDS011;40046;53.254;5.900;2024-02-26T11:12:42;6.90;;;2.70;;
54139;SDS011;40046;53.254;5.900;2024-02-26T11:15:09;5.18;;;2.17;;
54139;SDS011;40046;53.254;5.900;2024-02-26T11:17:35;12.77;;;2.40;;
54139;SDS011;40046;53.254;5.900;2024-02-26T11:20:03;9.52;;;3.42;;
54139;SDS011;40046;53.254;5.900;2024-02-26T11:22:30;9.63;;;2.70;;
54139;SDS011;40046;53.254;5.900;2024-02-26T11:24:57;5.65;;;2.83;;
54139;SDS011;40046;53.254;5.900;2024-02-26T11:27:42;10.93;;;2.65;;
54139;SDS011;40046;53.254;5.900;2024-02-26T11:30:09;6.40;;;2.83;;
54139;SDS011;40046;53.254;5.900;2024-02-26T11:32:36;9.95;;;3.20;;
54139;SDS011;40046;53.254;5.900;2024-02-26T11:35:04;6.45;;;2.80;;
54139;SDS011;40046;53.254;5.900;2024-02-26T11:37:30;10.07;;;2.92;;
54139;SDS011;40046;53.254;5.900;2024-02-26T11:39:58;9.80;;;2.97;;
54139;SDS011;40046;53.254;5.900;2024-02-26T11:42:26;5.20;;;2.20;;
54139;SDS011;40046;53.254;5.900;2024-02-26T11:44:53;9.60;;;3.10;;
54139;SDS011;40046;53.254;5.900;2024-02-26T11:47:26;8.18;;;2.38;;
54139;SDS011;40046;53.254;5.900;2024-02-26T11:49:52;11.88;;;2.90;;
54139;SDS011;40046;53.254;5.900;2024-02-26T11:52:19;10.52;;;3.70;;
54139;SDS011;40046;53.254;5.900;2024-02-26T11:54:48;16.25;;;6.70;;
54139;SDS011;40046;53.254;5.900;2024-02-26T11:59:48;10.38;;;3.47;;
54139;SDS011;40046;53.254;5.900;2024-02-26T12:05:00;8.95;;;2.90;;
54139;SDS011;40046;53.254;5.900;2024-02-26T12:07:27;6.18;;;2.33;;
54139;SDS011;40046;53.254;5.900;2024-02-26T12:09:56;8.43;;;2.08;;
54139;SDS011;40046;53.254;5.900;2024-02-26T12:12:38;7.78;;;1.98;;
54139;SDS011;40046;53.254;5.900;2024-02-26T12:15:05;6.53;;;2.30;;
54139;SDS011;40046;53.254;5.900;2024-02-26T12:17:31;11.00;;;3.15;;
54139;SDS011;40046;53.254;5.900;2024-02-26T12:20:09;10.35;;;2.70;;
54139;SDS011;40046;53.254;5.900;2024-02-26T12:22:35;9.27;;;2.70;;
54139;SDS011;40046;53.254;5.900;2024-02-26T12:25:04;11.57;;;2.47;;
54139;SDS011;40046;53.254;5.900;2024-02-26T12:27:31;9.82;;;2.95;;
54139;SDS011;40046;53.254;5.900;2024-02-26T12:29:58;11.40;;;3.05;;
54139;SDS011;40046;53.254;5.900;2024-02-26T12:32:24;12.77;;;3.13;;
54139;SDS011;40046;53.254;5.900;2024-02-26T12:34:50;8.50;;;2.85;;
54139;SDS011;40046;53.254;5.900;2024-02-26T12:37:16;11.45;;;3.00;;
54139;SDS011;40046;53.254;5.900;2024-02-26T12:39:42;9.55;;;4.22;;
54139;SDS011;40046;53.254;5.900;2024-02-26T12:42:09;8.80;;;2.95;;
54139;SDS011;40046;53.254;5.900;2024-02-26T12:44:35;8.00;;;2.70;;
54139;SDS011;40046;53.254;5.900;2024-02-26T12:47:01;12.20;;;3.15;;
54139;SDS011;40046;53.254;5.900;2024-02-26T12:49:28;8.65;;;2.72;;
54139;SDS011;40046;53.254;5.900;2024-02-26T12:51:54;7.90;;;2.90;;
54139;SDS011;40046;53.254;5.900;2024-02-26T12:54:32;11.65;;;3.13;;
54139;SDS011;40046;53.254;5.900;2024-02-26T12:57:00;4.65;;;2.45;;
54139;SDS011;40046;53.254;5.900;2024-02-26T12:59:27;11.43;;;3.15;;
54139;SDS011;40046;53.254;5.900;2024-02-26T13:01:54;9.75;;;2.95;;
54139;SDS011;40046;53.254;5.900;2024-02-26T13:04:20;9.02;;;2.65;;
54139;SDS011;40046;53.254;5.900;2024-02-26T13:06:46;11.98;;;4.13;;
54139;SDS011;40046;53.254;5.900;2024-02-26T13:09:12;10.60;;;3.47;;
54139;SDS011;40046;53.254;5.900;2024-02-26T13:11:39;5.55;;;2.92;;
54139;SDS011;40046;53.254;5.900;2024-02-26T13:14:05;6.82;;;2.72;;
54139;SDS011;40046;53.254;5.900;2024-02-26T13:16:31;8.88;;;3.70;;
54139;SDS011;40046;53.254;5.900;2024-02-26T13:19:08;5.30;;;2.42;;
54139;SDS011;40046;53.254;5.900;2024-02-26T13:21:35;6.53;;;2.35;;
54139;SDS011;40046;53.254;5.900;2024-02-26T13:24:01;9.85;;;2.28;;
54139;SDS011;40046;53.254;5.900;2024-02-26T13:26:27;7.43;;;2.40;;
54139;SDS011;40046;53.254;5.900;2024-02-26T13:29:02;3.95;;;1.88;;
54139;SDS011;40046;53.254;5.900;2024-02-26T13:31:29;6.53;;;2.25;;
54139;SDS011;40046;53.254;5.900;2024-02-26T13:33:55;4.40;;;2.00;;
54139;SDS011;40046;53.254;5.900;2024-02-26T13:36:24;4.45;;;1.73;;
54139;SDS011;40046;53.254;5.900;2024-02-26T13:38:54;8.77;;;2.45;;
54139;SDS011;40046;53.254;5.900;2024-02-26T13:41:23;8.18;;;3.30;;
54139;SDS011;40046;53.254;5.900;2024-02-26T13:43:50;5.72;;;2.22;;
54139;SDS011;40046;53.254;5.900;2024-02-26T13:46:16;6.22;;;1.95;;
54139;SDS011;40046;53.254;5.900;2024-02-26T13:48:43;6.78;;;2.00;;
54139;SDS011;40046;53.254;5.900;2024-02-26T13:51:09;7.60;;;3.47;;
54139;SDS011;40046;53.254;5.900;2024-02-26T13:53:35;11.77;;;2.50;;
54139;SDS011;40046;53.254;5.900;2024-02-26T13:56:02;5.60;;;1.92;;
54139;SDS011;40046;53.254;5.900;2024-02-26T13:58:30;6.57;;;2.35;;
54139;SDS011;40046;53.254;5.900;2024-02-26T14:00:56;7.15;;;2.15;;
54139;SDS011;40046;53.254;5.900;2024-02-26T14:03:24;5.18;;;1.95;;
54139;SDS011;40046;53.254;5.900;2024-02-26T14:05:51;6.45;;;1.45;;
54139;SDS011;40046;53.254;5.900;2024-02-26T14:08:17;6.43;;;1.55;;
54139;SDS011;40046;53.254;5.900;2024-02-26T14:10:44;4.30;;;1.50;;
54139;SDS011;40046;53.254;5.900;2024-02-26T14:13:10;7.80;;;1.80;;
54139;SDS011;40046;53.254;5.900;2024-02-26T14:15:36;4.05;;;1.30;;
54139;SDS011;40046;53.254;5.900;2024-02-26T14:18:04;7.30;;;2.05;;
54139;SDS011;40046;53.254;5.900;2024-02-26T14:20:30;4.30;;;1.73;;
54139;SDS011;40046;53.254;5.900;2024-02-26T14:22:56;7.07;;;1.92;;
54139;SDS011;40046;53.254;5.900;2024-02-26T14:25:23;5.40;;;1.52;;
54139;SDS011;40046;53.254;5.900;2024-02-26T14:27:49;3.47;;;2.13;;
54139;SDS011;40046;53.254;5.900;2024-02-26T14:30:15;4.30;;;1.50;;
54139;SDS011;40046;53.254;5.900;2024-02-26T14:32:41;3.08;;;1.20;;
54139;SDS011;40046;53.254;5.900;2024-02-26T14:35:08;4.63;;;1.40;;
54139;SDS011;40046;53.254;5.900;2024-02-26T14:37:35;3.75;;;1.60;;
54139;SDS011;40046;53.254;5.900;2024-02-26T14:40:01;4.22;;;1.85;;
54139;SDS011;40046;53.254;5.900;2024-02-26T14:42:28;7.15;;;1.30;;
54139;SDS011;40046;53.254;5.900;2024-02-26T14:44:54;4.22;;;1.42;;
54139;SDS011;40046;53.254;5.900;2024-02-26T14:47:21;3.92;;;0.80;;
54139;SDS011;40046;53.254;5.900;2024-02-26T14:49:47;4.63;;;1.63;;